sensor_id;sensor_type;location;lat;lon;timestamp;temperature;humidity
32366;DHT22;18837;46.832;16.838;2022-12-07T00:01:47;6.70;97.30
32366;DHT22;18837;46.832;16.838;2022-12-07T00:04:25;6.80;97.50
32366;DHT22;18837;46.832;16.838;2022-12-07T00:06:52;6.70;97.50
32366;DHT22;18837;46.832;16.838;2022-12-07T00:09:18;7.20;97.70
32366;DHT22;18837;46.832;16.838;2022-12-07T00:11:49;6.60;97.50
32366;DHT22;18837;46.832;16.838;2022-12-07T00:14:16;6.60;97.40
32366;DHT22;18837;46.832;16.838;2022-12-07T00:16:42;6.80;97.90
32366;DHT22;18837;46.832;16.838;2022-12-07T00:19:17;6.60;97.50
32366;DHT22;18837;46.832;16.838;2022-12-07T00:21:43;6.60;97.50
32366;DHT22;18837;46.832;16.838;2022-12-07T00:24:10;6.60;97.60
32366;DHT22;18837;46.832;16.838;2022-12-07T00:26:38;6.90;97.60
32366;DHT22;18837;46.832;16.838;2022-12-07T00:29:16;6.60;97.60
32366;DHT22;18837;46.832;16.838;2022-12-07T00:31:42;6.60;97.60
32366;DHT22;18837;46.832;16.838;2022-12-07T00:34:32;6.60;97.60
32366;DHT22;18837;46.832;16.838;2022-12-07T00:37:23;6.60;97.90
32366;DHT22;18837;46.832;16.838;2022-12-07T00:39:54;6.60;98.00
32366;DHT22;18837;46.832;16.838;2022-12-07T00:42:20;6.60;97.80
32366;DHT22;18837;46.832;16.838;2022-12-07T00:44:45;6.60;97.60
32366;DHT22;18837;46.832;16.838;2022-12-07T00:47:11;7.60;98.10
32366;DHT22;18837;46.832;16.838;2022-12-07T00:49:37;6.60;98.10
32366;DHT22;18837;46.832;16.838;2022-12-07T00:52:03;7.10;97.90
32366;DHT22;18837;46.832;16.838;2022-12-07T00:54:33;6.30;97.70
32366;DHT22;18837;46.832;16.838;2022-12-07T00:56:59;6.70;97.60
32366;DHT22;18837;46.832;16.838;2022-12-07T00:59:25;6.60;97.60
32366;DHT22;18837;46.832;16.838;2022-12-07T01:01:50;7.40;98.00
32366;DHT22;18837;46.832;16.838;2022-12-07T01:04:16;6.60;97.70
32366;DHT22;18837;46.832;16.838;2022-12-07T01:06:41;6.90;97.80
32366;DHT22;18837;46.832;16.838;2022-12-07T01:09:10;6.60;97.80
32366;DHT22;18837;46.832;16.838;2022-12-07T01:12:01;6.50;97.70
32366;DHT22;18837;46.832;16.838;2022-12-07T01:14:31;6.60;98.20
32366;DHT22;18837;46.832;16.838;2022-12-07T01:16:56;6.50;97.70
32366;DHT22;18837;46.832;16.838;2022-12-07T01:19:22;6.50;97.80
32366;DHT22;18837;46.832;16.838;2022-12-07T01:21:48;7.60;98.10
32366;DHT22;18837;46.832;16.838;2022-12-07T01:24:14;6.50;97.80
32366;DHT22;18837;46.832;16.838;2022-12-07T01:26:40;6.50;98.20
32366;DHT22;18837;46.832;16.838;2022-12-07T01:29:11;6.50;97.80
32366;DHT22;18837;46.832;16.838;2022-12-07T01:31:37;7.40;98.10
32366;DHT22;18837;46.832;16.838;2022-12-07T01:34:02;6.70;97.90
32366;DHT22;18837;46.832;16.838;2022-12-07T01:36:35;6.50;98.20
32366;DHT22;18837;46.832;16.838;2022-12-07T01:39:03;6.70;97.90
32366;DHT22;18837;46.832;16.838;2022-12-07T01:41:32;6.50;97.80
32366;DHT22;18837;46.832;16.838;2022-12-07T01:47:53;6.50;97.90
32366;DHT22;18837;46.832;16.838;2022-12-07T01:50:21;6.80;97.90
32366;DHT22;18837;46.832;16.838;2022-12-07T01:52:51;6.50;97.80
32366;DHT22;18837;46.832;16.838;2022-12-07T01:55:18;6.50;97.80
32366;DHT22;18837;46.832;16.838;2022-12-07T01:57:48;6.50;97.80
32366;DHT22;18837;46.832;16.838;2022-12-07T02:00:14;6.50;97.80
32366;DHT22;18837;46.832;16.838;2022-12-07T02:05:46;6.50;97.80
32366;DHT22;18837;46.832;16.838;2022-12-07T02:08:13;6.60;97.90
32366;DHT22;18837;46.832;16.838;2022-12-07T02:10:40;6.50;97.80
32366;DHT22;18837;46.832;16.838;2022-12-07T02:13:23;6.50;98.00
32366;DHT22;18837;46.832;16.838;2022-12-07T02:25:12;6.40;98.00
32366;DHT22;18837;46.832;16.838;2022-12-07T02:28:02;6.50;98.50
32366;DHT22;18837;46.832;16.838;2022-12-07T02:30:32;6.40;98.30
32366;DHT22;18837;46.832;16.838;2022-12-07T02:33:11;6.40;97.90
32366;DHT22;18837;46.832;16.838;2022-12-07T02:35:43;6.50;97.80
32366;DHT22;18837;46.832;16.838;2022-12-07T02:41:06;6.40;97.70
32366;DHT22;18837;46.832;16.838;2022-12-07T02:43:54;6.80;98.00
32366;DHT22;18837;46.832;16.838;2022-12-07T02:46:27;6.40;98.10
32366;DHT22;18837;46.832;16.838;2022-12-07T02:48:55;6.40;97.90
32366;DHT22;18837;46.832;16.838;2022-12-07T02:51:22;6.40;97.90
32366;DHT22;18837;46.832;16.838;2022-12-07T02:53:57;7.10;98.20
32366;DHT22;18837;46.832;16.838;2022-12-07T03:11:03;6.40;97.80
32366;DHT22;18837;46.832;16.838;2022-12-07T03:16:18;6.40;97.70
32366;DHT22;18837;46.832;16.838;2022-12-07T03:19:09;6.40;97.80
32366;DHT22;18837;46.832;16.838;2022-12-07T03:21:57;6.40;97.80
32366;DHT22;18837;46.832;16.838;2022-12-07T03:24:31;6.40;97.70
32366;DHT22;18837;46.832;16.838;2022-12-07T03:27:41;6.70;97.90
32366;DHT22;18837;46.832;16.838;2022-12-07T03:30:27;6.60;97.70
32366;DHT22;18837;46.832;16.838;2022-12-07T03:33:24;6.40;97.80
32366;DHT22;18837;46.832;16.838;2022-12-07T03:36:08;6.30;97.70
32366;DHT22;18837;46.832;16.838;2022-12-07T03:38:37;6.30;97.60
32366;DHT22;18837;46.832;16.838;2022-12-07T03:41:24;6.30;97.90
32366;DHT22;18837;46.832;16.838;2022-12-07T03:43:53;6.30;97.70
32366;DHT22;18837;46.832;16.838;2022-12-07T03:49:14;6.30;97.80
32366;DHT22;18837;46.832;16.838;2022-12-07T03:52:02;6.40;97.90
32366;DHT22;18837;46.832;16.838;2022-12-07T03:54:34;6.30;97.80
32366;DHT22;18837;46.832;16.838;2022-12-07T03:57:02;6.30;98.30
32366;DHT22;18837;46.832;16.838;2022-12-07T03:59:30;6.80;98.00
32366;DHT22;18837;46.832;16.838;2022-12-07T04:02:04;6.30;97.90
32366;DHT22;18837;46.832;16.838;2022-12-07T04:04:37;6.30;97.90
32366;DHT22;18837;46.832;16.838;2022-12-07T04:07:14;6.30;97.80
32366;DHT22;18837;46.832;16.838;2022-12-07T04:09:40;6.30;97.90
32366;DHT22;18837;46.832;16.838;2022-12-07T04:12:06;6.30;98.00
32366;DHT22;18837;46.832;16.838;2022-12-07T04:14:32;6.30;97.90
32366;DHT22;18837;46.832;16.838;2022-12-07T04:16:58;6.30;97.90
32366;DHT22;18837;46.832;16.838;2022-12-07T04:19:29;6.30;97.90
32366;DHT22;18837;46.832;16.838;2022-12-07T04:22:05;6.30;97.80
32366;DHT22;18837;46.832;16.838;2022-12-07T04:24:31;6.60;97.90
32366;DHT22;18837;46.832;16.838;2022-12-07T04:26:57;6.30;97.90
32366;DHT22;18837;46.832;16.838;2022-12-07T04:29:23;6.30;97.80
32366;DHT22;18837;46.832;16.838;2022-12-07T04:31:49;6.20;97.90
32366;DHT22;18837;46.832;16.838;2022-12-07T04:34:16;6.30;97.90
32366;DHT22;18837;46.832;16.838;2022-12-07T04:36:42;7.30;98.20
32366;DHT22;18837;46.832;16.838;2022-12-07T04:39:32;7.00;98.10
32366;DHT22;18837;46.832;16.838;2022-12-07T04:42:11;6.20;97.50
32366;DHT22;18837;46.832;16.838;2022-12-07T04:44:38;6.20;97.70
32366;DHT22;18837;46.832;16.838;2022-12-07T04:47:04;6.20;97.90
32366;DHT22;18837;46.832;16.838;2022-12-07T04:49:30;6.20;97.80
32366;DHT22;18837;46.832;16.838;2022-12-07T04:51:55;6.30;98.00
32366;DHT22;18837;46.832;16.838;2022-12-07T04:54:21;6.40;97.90
32366;DHT22;18837;46.832;16.838;2022-12-07T04:56:52;6.20;97.90
32366;DHT22;18837;46.832;16.838;2022-12-07T04:59:18;6.20;97.70
32366;DHT22;18837;46.832;16.838;2022-12-07T05:01:44;6.90;98.20
32366;DHT22;18837;46.832;16.838;2022-12-07T05:04:09;6.30;98.00
32366;DHT22;18837;46.832;16.838;2022-12-07T05:06:35;6.20;97.90
32366;DHT22;18837;46.832;16.838;2022-12-07T05:09:01;6.20;97.80
32366;DHT22;18837;46.832;16.838;2022-12-07T05:11:34;6.20;97.80
32366;DHT22;18837;46.832;16.838;2022-12-07T05:14:25;6.20;97.70
32366;DHT22;18837;46.832;16.838;2022-12-07T05:16:56;6.20;97.50
32366;DHT22;18837;46.832;16.838;2022-12-07T05:19:21;6.20;97.70
32366;DHT22;18837;46.832;16.838;2022-12-07T05:21:47;7.20;98.10
32366;DHT22;18837;46.832;16.838;2022-12-07T05:24:15;6.20;98.00
32366;DHT22;18837;46.832;16.838;2022-12-07T05:26:43;6.20;97.80
32366;DHT22;18837;46.832;16.838;2022-12-07T05:29:14;6.20;98.00
32366;DHT22;18837;46.832;16.838;2022-12-07T05:31:45;6.70;98.00
32366;DHT22;18837;46.832;16.838;2022-12-07T05:34:11;6.20;97.90
32366;DHT22;18837;46.832;16.838;2022-12-07T05:36:37;6.10;97.90
32366;DHT22;18837;46.832;16.838;2022-12-07T05:39:03;6.20;98.00
32366;DHT22;18837;46.832;16.838;2022-12-07T05:41:29;6.20;97.90
32366;DHT22;18837;46.832;16.838;2022-12-07T05:44:13;6.20;98.20
32366;DHT22;18837;46.832;16.838;2022-12-07T05:46:58;6.20;98.00
32366;DHT22;18837;46.832;16.838;2022-12-07T05:49:36;6.60;97.90
32366;DHT22;18837;46.832;16.838;2022-12-07T05:52:07;6.70;98.00
32366;DHT22;18837;46.832;16.838;2022-12-07T05:54:33;6.20;97.90
32366;DHT22;18837;46.832;16.838;2022-12-07T05:56:59;6.90;98.00
32366;DHT22;18837;46.832;16.838;2022-12-07T05:59:24;6.20;97.90
32366;DHT22;18837;46.832;16.838;2022-12-07T06:02:03;6.10;97.90
32366;DHT22;18837;46.832;16.838;2022-12-07T06:04:32;6.20;97.60
32366;DHT22;18837;46.832;16.838;2022-12-07T06:07:00;6.20;97.80
32366;DHT22;18837;46.832;16.838;2022-12-07T06:09:26;6.10;97.80
32366;DHT22;18837;46.832;16.838;2022-12-07T06:11:53;6.20;97.80
32366;DHT22;18837;46.832;16.838;2022-12-07T06:14:38;6.10;97.50
32366;DHT22;18837;46.832;16.838;2022-12-07T06:17:04;6.10;97.50
32366;DHT22;18837;46.832;16.838;2022-12-07T06:19:30;6.10;97.60
32366;DHT22;18837;46.832;16.838;2022-12-07T06:22:27;6.10;97.60
32366;DHT22;18837;46.832;16.838;2022-12-07T06:25:08;6.10;97.50
32366;DHT22;18837;46.832;16.838;2022-12-07T06:27:35;6.10;97.70
32366;DHT22;18837;46.832;16.838;2022-12-07T06:30:01;6.10;97.70
32366;DHT22;18837;46.832;16.838;2022-12-07T06:32:32;6.00;97.70
32366;DHT22;18837;46.832;16.838;2022-12-07T06:34:59;6.00;97.70
32366;DHT22;18837;46.832;16.838;2022-12-07T06:37:25;6.00;97.70
32366;DHT22;18837;46.832;16.838;2022-12-07T06:39:50;6.10;97.90
32366;DHT22;18837;46.832;16.838;2022-12-07T06:42:17;6.00;97.80
32366;DHT22;18837;46.832;16.838;2022-12-07T06:44:43;6.00;97.80
32366;DHT22;18837;46.832;16.838;2022-12-07T06:47:08;6.00;97.80
32366;DHT22;18837;46.832;16.838;2022-12-07T06:49:35;6.00;97.80
32366;DHT22;18837;46.832;16.838;2022-12-07T06:52:00;6.10;97.90
32366;DHT22;18837;46.832;16.838;2022-12-07T06:54:26;6.10;97.80
32366;DHT22;18837;46.832;16.838;2022-12-07T06:57:05;6.10;97.80
32366;DHT22;18837;46.832;16.838;2022-12-07T06:59:43;6.10;97.80
32366;DHT22;18837;46.832;16.838;2022-12-07T07:02:10;6.10;97.70
32366;DHT22;18837;46.832;16.838;2022-12-07T07:04:35;6.10;97.80
32366;DHT22;18837;46.832;16.838;2022-12-07T07:07:01;6.10;97.70
32366;DHT22;18837;46.832;16.838;2022-12-07T07:09:27;6.10;97.70
32366;DHT22;18837;46.832;16.838;2022-12-07T07:11:52;6.10;97.70
32366;DHT22;18837;46.832;16.838;2022-12-07T07:14:37;6.10;97.70
32366;DHT22;18837;46.832;16.838;2022-12-07T07:17:02;6.10;97.70
32366;DHT22;18837;46.832;16.838;2022-12-07T07:19:28;6.10;97.70
32366;DHT22;18837;46.832;16.838;2022-12-07T07:21:54;6.00;97.80
32366;DHT22;18837;46.832;16.838;2022-12-07T07:24:20;6.10;97.90
32366;DHT22;18837;46.832;16.838;2022-12-07T07:26:46;6.00;97.80
32366;DHT22;18837;46.832;16.838;2022-12-07T07:29:12;6.00;97.70
32366;DHT22;18837;46.832;16.838;2022-12-07T07:31:44;6.00;98.10
32366;DHT22;18837;46.832;16.838;2022-12-07T07:34:10;6.10;97.80
32366;DHT22;18837;46.832;16.838;2022-12-07T07:36:36;6.00;97.90
32366;DHT22;18837;46.832;16.838;2022-12-07T07:39:02;6.00;97.90
32366;DHT22;18837;46.832;16.838;2022-12-07T07:41:28;6.00;97.90
32366;DHT22;18837;46.832;16.838;2022-12-07T07:43:53;6.00;98.00
32366;DHT22;18837;46.832;16.838;2022-12-07T07:46:19;6.00;97.90
32366;DHT22;18837;46.832;16.838;2022-12-07T07:48:45;6.10;97.50
32366;DHT22;18837;46.832;16.838;2022-12-07T07:51:11;6.00;97.90
32366;DHT22;18837;46.832;16.838;2022-12-07T07:53:36;6.10;97.90
32366;DHT22;18837;46.832;16.838;2022-12-07T07:56:02;6.10;97.90
32366;DHT22;18837;46.832;16.838;2022-12-07T07:58:28;6.10;98.00
32366;DHT22;18837;46.832;16.838;2022-12-07T08:00:54;6.10;97.90
32366;DHT22;18837;46.832;16.838;2022-12-07T08:03:20;6.10;97.70
32366;DHT22;18837;46.832;16.838;2022-12-07T08:05:52;6.10;97.90
32366;DHT22;18837;46.832;16.838;2022-12-07T08:08:17;6.10;97.80
32366;DHT22;18837;46.832;16.838;2022-12-07T08:10:43;6.10;97.90
32366;DHT22;18837;46.832;16.838;2022-12-07T08:13:09;6.10;97.80
32366;DHT22;18837;46.832;16.838;2022-12-07T08:15:40;6.10;98.10
32366;DHT22;18837;46.832;16.838;2022-12-07T08:18:08;6.10;97.80
32366;DHT22;18837;46.832;16.838;2022-12-07T08:20:37;6.10;97.70
32366;DHT22;18837;46.832;16.838;2022-12-07T08:23:22;6.10;97.70
32366;DHT22;18837;46.832;16.838;2022-12-07T08:25:47;6.10;97.50
32366;DHT22;18837;46.832;16.838;2022-12-07T08:28:13;6.00;97.10
32366;DHT22;18837;46.832;16.838;2022-12-07T08:30:38;6.00;97.30
32366;DHT22;18837;46.832;16.838;2022-12-07T08:33:04;6.00;97.40
32366;DHT22;18837;46.832;16.838;2022-12-07T08:35:32;6.00;97.50
32366;DHT22;18837;46.832;16.838;2022-12-07T08:37:58;6.00;97.50
32366;DHT22;18837;46.832;16.838;2022-12-07T08:40:23;6.00;97.70
32366;DHT22;18837;46.832;16.838;2022-12-07T08:42:50;6.00;97.70
32366;DHT22;18837;46.832;16.838;2022-12-07T08:45:17;6.00;97.70
32366;DHT22;18837;46.832;16.838;2022-12-07T08:48:06;6.00;97.70
32366;DHT22;18837;46.832;16.838;2022-12-07T08:50:33;6.10;97.70
32366;DHT22;18837;46.832;16.838;2022-12-07T08:53:01;6.10;97.70
32366;DHT22;18837;46.832;16.838;2022-12-07T08:55:46;6.10;97.80
32366;DHT22;18837;46.832;16.838;2022-12-07T08:58:28;6.10;97.70
32366;DHT22;18837;46.832;16.838;2022-12-07T09:00:54;6.20;97.80
32366;DHT22;18837;46.832;16.838;2022-12-07T09:03:20;6.20;97.90
32366;DHT22;18837;46.832;16.838;2022-12-07T09:05:46;6.20;97.70
32366;DHT22;18837;46.832;16.838;2022-12-07T09:08:11;6.20;97.80
32366;DHT22;18837;46.832;16.838;2022-12-07T09:10:37;6.20;97.80
32366;DHT22;18837;46.832;16.838;2022-12-07T09:13:08;6.20;97.80
32366;DHT22;18837;46.832;16.838;2022-12-07T09:15:34;6.20;97.80
32366;DHT22;18837;46.832;16.838;2022-12-07T09:17:59;6.20;97.80
32366;DHT22;18837;46.832;16.838;2022-12-07T09:20:25;6.20;97.80
32366;DHT22;18837;46.832;16.838;2022-12-07T09:22:51;6.20;97.80
32366;DHT22;18837;46.832;16.838;2022-12-07T09:25:17;6.20;97.80
32366;DHT22;18837;46.832;16.838;2022-12-07T09:27:56;6.20;97.80
32366;DHT22;18837;46.832;16.838;2022-12-07T09:33:40;6.20;98.20
32366;DHT22;18837;46.832;16.838;2022-12-07T09:36:07;6.20;97.70
32366;DHT22;18837;46.832;16.838;2022-12-07T09:38:32;6.20;97.80
32366;DHT22;18837;46.832;16.838;2022-12-07T09:41:04;6.20;98.00
32366;DHT22;18837;46.832;16.838;2022-12-07T09:43:30;6.40;98.10
32366;DHT22;18837;46.832;16.838;2022-12-07T09:45:56;6.50;98.60
32366;DHT22;18837;46.832;16.838;2022-12-07T09:48:28;6.70;98.40
32366;DHT22;18837;46.832;16.838;2022-12-07T09:50:58;6.90;98.20
32366;DHT22;18837;46.832;16.838;2022-12-07T09:53:34;7.10;97.90
32366;DHT22;18837;46.832;16.838;2022-12-07T09:56:02;7.30;97.80
32366;DHT22;18837;46.832;16.838;2022-12-07T09:58:30;7.50;97.60
32366;DHT22;18837;46.832;16.838;2022-12-07T10:01:01;7.70;97.40
32366;DHT22;18837;46.832;16.838;2022-12-07T10:03:27;7.80;97.00
32366;DHT22;18837;46.832;16.838;2022-12-07T10:05:54;7.90;96.70
32366;DHT22;18837;46.832;16.838;2022-12-07T10:08:21;8.00;96.50
32366;DHT22;18837;46.832;16.838;2022-12-07T10:10:56;8.10;96.50
32366;DHT22;18837;46.832;16.838;2022-12-07T10:13:36;8.10;96.80
32366;DHT22;18837;46.832;16.838;2022-12-07T10:16:02;8.20;96.30
32366;DHT22;18837;46.832;16.838;2022-12-07T10:18:39;8.20;96.30
32366;DHT22;18837;46.832;16.838;2022-12-07T10:21:24;8.30;96.20
32366;DHT22;18837;46.832;16.838;2022-12-07T10:26:50;8.30;96.40
32366;DHT22;18837;46.832;16.838;2022-12-07T10:29:24;8.30;96.50
32366;DHT22;18837;46.832;16.838;2022-12-07T10:32:44;8.40;96.70
32366;DHT22;18837;46.832;16.838;2022-12-07T10:34:45;8.40;95.70
32366;DHT22;18837;46.832;16.838;2022-12-07T10:37:16;8.40;95.90
32366;DHT22;18837;46.832;16.838;2022-12-07T10:39:51;8.40;95.70
32366;DHT22;18837;46.832;16.838;2022-12-07T10:42:28;8.40;96.40
32366;DHT22;18837;46.832;16.838;2022-12-07T10:45:24;8.40;96.40
32366;DHT22;18837;46.832;16.838;2022-12-07T10:48:10;8.50;95.70
32366;DHT22;18837;46.832;16.838;2022-12-07T11:04:25;8.60;96.30
32366;DHT22;18837;46.832;16.838;2022-12-07T11:10:08;8.60;96.20
32366;DHT22;18837;46.832;16.838;2022-12-07T11:18:37;8.60;96.30
32366;DHT22;18837;46.832;16.838;2022-12-07T11:24:19;8.60;96.40
32366;DHT22;18837;46.832;16.838;2022-12-07T11:35:22;8.50;96.20
32366;DHT22;18837;46.832;16.838;2022-12-07T11:37:54;8.50;96.00
32366;DHT22;18837;46.832;16.838;2022-12-07T11:40:27;8.50;95.40
32366;DHT22;18837;46.832;16.838;2022-12-07T11:45:37;8.50;96.20
32366;DHT22;18837;46.832;16.838;2022-12-07T11:48:17;8.50;95.50
32366;DHT22;18837;46.832;16.838;2022-12-07T11:50:54;8.50;95.40
32366;DHT22;18837;46.832;16.838;2022-12-07T11:53:26;8.50;95.50
32366;DHT22;18837;46.832;16.838;2022-12-07T11:56:09;8.50;95.50
32366;DHT22;18837;46.832;16.838;2022-12-07T11:58:57;8.60;96.20
32366;DHT22;18837;46.832;16.838;2022-12-07T12:01:38;8.50;96.20
32366;DHT22;18837;46.832;16.838;2022-12-07T12:06:39;8.50;95.60
32366;DHT22;18837;46.832;16.838;2022-12-07T12:09:17;8.50;95.40
32366;DHT22;18837;46.832;16.838;2022-12-07T12:12:24;8.50;95.50
32366;DHT22;18837;46.832;16.838;2022-12-07T12:20:48;8.40;95.70
32366;DHT22;18837;46.832;16.838;2022-12-07T12:23:42;8.40;96.20
32366;DHT22;18837;46.832;16.838;2022-12-07T12:26:13;8.40;95.60
32366;DHT22;18837;46.832;16.838;2022-12-07T12:28:49;8.40;95.60
32366;DHT22;18837;46.832;16.838;2022-12-07T12:33:50;8.40;96.40
32366;DHT22;18837;46.832;16.838;2022-12-07T12:39:17;8.40;96.60
32366;DHT22;18837;46.832;16.838;2022-12-07T12:51:43;8.50;95.80
32366;DHT22;18837;46.832;16.838;2022-12-07T12:54:35;8.50;95.70
32366;DHT22;18837;46.832;16.838;2022-12-07T12:57:24;8.60;95.70
32366;DHT22;18837;46.832;16.838;2022-12-07T13:02:50;8.50;95.60
32366;DHT22;18837;46.832;16.838;2022-12-07T13:05:30;8.50;96.30
32366;DHT22;18837;46.832;16.838;2022-12-07T13:08:17;8.40;96.20
32366;DHT22;18837;46.832;16.838;2022-12-07T13:10:45;8.40;95.70
32366;DHT22;18837;46.832;16.838;2022-12-07T13:15:49;8.40;96.20
32366;DHT22;18837;46.832;16.838;2022-12-07T13:21:02;8.30;96.40
32366;DHT22;18837;46.832;16.838;2022-12-07T13:23:36;8.30;95.80
32366;DHT22;18837;46.832;16.838;2022-12-07T13:26:22;8.30;96.60
32366;DHT22;18837;46.832;16.838;2022-12-07T13:29:19;8.30;96.40
32366;DHT22;18837;46.832;16.838;2022-12-07T13:32:17;8.30;96.50
32366;DHT22;18837;46.832;16.838;2022-12-07T13:34:55;8.30;96.30
32366;DHT22;18837;46.832;16.838;2022-12-07T13:37:27;8.20;96.10
32366;DHT22;18837;46.832;16.838;2022-12-07T13:39:54;8.20;96.00
32366;DHT22;18837;46.832;16.838;2022-12-07T13:42:33;8.30;96.20
32366;DHT22;18837;46.832;16.838;2022-12-07T13:45:22;8.30;96.50
32366;DHT22;18837;46.832;16.838;2022-12-07T13:47:58;8.30;95.90
32366;DHT22;18837;46.832;16.838;2022-12-07T13:50:27;8.30;96.40
32366;DHT22;18837;46.832;16.838;2022-12-07T13:52:58;8.40;95.80
32366;DHT22;18837;46.832;16.838;2022-12-07T13:55:25;8.30;95.80
32366;DHT22;18837;46.832;16.838;2022-12-07T13:57:53;8.30;96.00
32366;DHT22;18837;46.832;16.838;2022-12-07T14:00:21;8.30;95.90
32366;DHT22;18837;46.832;16.838;2022-12-07T14:02:59;8.20;96.00
32366;DHT22;18837;46.832;16.838;2022-12-07T14:05:29;8.20;96.00
32366;DHT22;18837;46.832;16.838;2022-12-07T14:08:22;8.20;96.00
32366;DHT22;18837;46.832;16.838;2022-12-07T14:16:28;8.10;96.50
32366;DHT22;18837;46.832;16.838;2022-12-07T14:18:58;8.10;96.40
32366;DHT22;18837;46.832;16.838;2022-12-07T14:21:29;8.00;96.20
32366;DHT22;18837;46.832;16.838;2022-12-07T14:24:16;8.00;96.30
32366;DHT22;18837;46.832;16.838;2022-12-07T14:26:47;8.00;96.70
32366;DHT22;18837;46.832;16.838;2022-12-07T14:31:52;8.00;96.40
32366;DHT22;18837;46.832;16.838;2022-12-07T14:34:22;7.90;96.30
32366;DHT22;18837;46.832;16.838;2022-12-07T14:36:49;7.90;96.40
32366;DHT22;18837;46.832;16.838;2022-12-07T14:39:15;7.90;96.50
32366;DHT22;18837;46.832;16.838;2022-12-07T14:41:46;8.00;96.40
32366;DHT22;18837;46.832;16.838;2022-12-07T14:44:22;8.00;96.70
32366;DHT22;18837;46.832;16.838;2022-12-07T14:46:49;8.00;96.30
32366;DHT22;18837;46.832;16.838;2022-12-07T14:49:16;8.00;96.30
32366;DHT22;18837;46.832;16.838;2022-12-07T14:51:42;8.00;96.30
32366;DHT22;18837;46.832;16.838;2022-12-07T14:54:18;8.00;96.30
32366;DHT22;18837;46.832;16.838;2022-12-07T14:56:44;7.90;96.20
32366;DHT22;18837;46.832;16.838;2022-12-07T14:59:12;7.90;96.30
32366;DHT22;18837;46.832;16.838;2022-12-07T15:01:38;7.80;96.30
32366;DHT22;18837;46.832;16.838;2022-12-07T15:04:04;7.80;96.70
32366;DHT22;18837;46.832;16.838;2022-12-07T15:06:30;7.80;96.60
32366;DHT22;18837;46.832;16.838;2022-12-07T15:08:56;7.80;96.50
32366;DHT22;18837;46.832;16.838;2022-12-07T15:11:22;7.70;96.60
32366;DHT22;18837;46.832;16.838;2022-12-07T15:14:00;7.70;96.50
32366;DHT22;18837;46.832;16.838;2022-12-07T15:16:46;7.70;96.90
32366;DHT22;18837;46.832;16.838;2022-12-07T15:19:20;7.70;97.00
32366;DHT22;18837;46.832;16.838;2022-12-07T15:21:51;7.60;96.60
32366;DHT22;18837;46.832;16.838;2022-12-07T15:24:16;7.60;96.60
32366;DHT22;18837;46.832;16.838;2022-12-07T15:26:42;7.60;96.70
32366;DHT22;18837;46.832;16.838;2022-12-07T15:29:10;7.60;96.60
32366;DHT22;18837;46.832;16.838;2022-12-07T15:31:57;7.50;96.70
32366;DHT22;18837;46.832;16.838;2022-12-07T15:34:27;7.50;96.80
32366;DHT22;18837;46.832;16.838;2022-12-07T15:36:54;7.50;97.10
32366;DHT22;18837;46.832;16.838;2022-12-07T15:39:20;7.50;96.80
32366;DHT22;18837;46.832;16.838;2022-12-07T15:41:47;7.60;96.80
32366;DHT22;18837;46.832;16.838;2022-12-07T15:44:13;7.50;96.60
32366;DHT22;18837;46.832;16.838;2022-12-07T15:46:58;7.60;96.80
32366;DHT22;18837;46.832;16.838;2022-12-07T15:49:26;7.60;96.60
32366;DHT22;18837;46.832;16.838;2022-12-07T15:51:54;7.50;96.60
32366;DHT22;18837;46.832;16.838;2022-12-07T15:54:22;7.50;97.10
32366;DHT22;18837;46.832;16.838;2022-12-07T15:56:49;7.50;96.60
32366;DHT22;18837;46.832;16.838;2022-12-07T15:59:15;7.40;97.00
32366;DHT22;18837;46.832;16.838;2022-12-07T16:01:41;7.40;96.60
32366;DHT22;18837;46.832;16.838;2022-12-07T16:04:07;7.40;96.70
32366;DHT22;18837;46.832;16.838;2022-12-07T16:06:33;7.40;96.80
32366;DHT22;18837;46.832;16.838;2022-12-07T16:08:59;7.40;96.80
32366;DHT22;18837;46.832;16.838;2022-12-07T16:11:25;7.30;96.90
32366;DHT22;18837;46.832;16.838;2022-12-07T16:13:51;7.30;96.90
32366;DHT22;18837;46.832;16.838;2022-12-07T16:16:19;7.30;97.10
32366;DHT22;18837;46.832;16.838;2022-12-07T16:18:46;7.10;96.80
32366;DHT22;18837;46.832;16.838;2022-12-07T16:21:15;7.20;96.90
32366;DHT22;18837;46.832;16.838;2022-12-07T16:23:41;7.20;96.90
32366;DHT22;18837;46.832;16.838;2022-12-07T16:26:13;7.20;96.90
32366;DHT22;18837;46.832;16.838;2022-12-07T16:28:39;7.20;96.90
32366;DHT22;18837;46.832;16.838;2022-12-07T16:31:13;7.20;96.90
32366;DHT22;18837;46.832;16.838;2022-12-07T16:33:40;7.20;97.30
32366;DHT22;18837;46.832;16.838;2022-12-07T16:36:08;7.20;96.90
32366;DHT22;18837;46.832;16.838;2022-12-07T16:38:35;7.20;96.90
32366;DHT22;18837;46.832;16.838;2022-12-07T16:41:01;7.20;96.90
32366;DHT22;18837;46.832;16.838;2022-12-07T16:43:27;7.20;96.80
32366;DHT22;18837;46.832;16.838;2022-12-07T16:45:53;7.30;96.60
32366;DHT22;18837;46.832;16.838;2022-12-07T16:48:19;7.20;96.20
32366;DHT22;18837;46.832;16.838;2022-12-07T16:50:46;7.10;96.60
32366;DHT22;18837;46.832;16.838;2022-12-07T16:53:14;7.10;96.30
32366;DHT22;18837;46.832;16.838;2022-12-07T16:55:43;7.00;96.40
32366;DHT22;18837;46.832;16.838;2022-12-07T16:58:16;7.00;96.60
32366;DHT22;18837;46.832;16.838;2022-12-07T17:00:47;6.90;96.70
32366;DHT22;18837;46.832;16.838;2022-12-07T17:03:15;6.90;96.90
32366;DHT22;18837;46.832;16.838;2022-12-07T17:05:43;6.90;97.70
32366;DHT22;18837;46.832;16.838;2022-12-07T17:08:11;6.80;96.80
32366;DHT22;18837;46.832;16.838;2022-12-07T17:10:42;6.80;97.80
32366;DHT22;18837;46.832;16.838;2022-12-07T17:13:08;6.80;97.00
32366;DHT22;18837;46.832;16.838;2022-12-07T17:16:03;6.80;97.40
32366;DHT22;18837;46.832;16.838;2022-12-07T17:18:35;6.80;97.20
32366;DHT22;18837;46.832;16.838;2022-12-07T17:21:07;6.80;97.30
32366;DHT22;18837;46.832;16.838;2022-12-07T17:23:36;6.80;97.20
32366;DHT22;18837;46.832;16.838;2022-12-07T17:26:12;6.70;97.20
32366;DHT22;18837;46.832;16.838;2022-12-07T17:28:39;6.80;97.80
32366;DHT22;18837;46.832;16.838;2022-12-07T17:31:08;6.90;97.40
32366;DHT22;18837;46.832;16.838;2022-12-07T17:33:37;7.60;97.80
32366;DHT22;18837;46.832;16.838;2022-12-07T17:36:15;7.20;98.10
32366;DHT22;18837;46.832;16.838;2022-12-07T17:38:42;7.30;97.40
32366;DHT22;18837;46.832;16.838;2022-12-07T17:41:13;7.50;97.20
32366;DHT22;18837;46.832;16.838;2022-12-07T17:43:59;7.70;97.10
32366;DHT22;18837;46.832;16.838;2022-12-07T17:46:27;7.80;96.70
32366;DHT22;18837;46.832;16.838;2022-12-07T17:48:56;7.90;96.70
32366;DHT22;18837;46.832;16.838;2022-12-07T17:51:25;8.00;96.30
32366;DHT22;18837;46.832;16.838;2022-12-07T17:54:09;8.10;96.70
32366;DHT22;18837;46.832;16.838;2022-12-07T17:56:37;8.20;96.10
32366;DHT22;18837;46.832;16.838;2022-12-07T17:59:04;8.20;96.00